createdAt,value
2018-03-20T00:00:53.076Z,4.00
2018-03-20T00:03:19.056Z,3.43
2018-03-20T00:05:45.021Z,3.27
2018-03-20T00:08:10.977Z,3.43
2018-03-20T00:10:37.021Z,4.10
2018-03-20T00:13:03.017Z,4.00
2018-03-20T00:15:29.012Z,3.03
2018-03-20T00:17:55.760Z,3.77
2018-03-20T00:20:21.724Z,2.83
2018-03-20T00:22:47.693Z,5.13
2018-03-20T00:25:13.704Z,4.17
2018-03-20T00:27:39.668Z,4.10
2018-03-20T00:30:05.738Z,3.37
2018-03-20T00:32:31.891Z,4.17
2018-03-20T00:34:58.626Z,3.30
2018-03-20T00:37:25.374Z,3.50
2018-03-20T00:39:51.359Z,2.97
2018-03-20T00:42:17.347Z,3.97
2018-03-20T00:44:43.302Z,3.93
2018-03-20T00:47:10.020Z,4.63
2018-03-20T00:49:35.980Z,3.53
2018-03-20T00:52:01.976Z,3.33
2018-03-20T00:54:27.998Z,3.50
2018-03-20T00:56:54.086Z,3.30
2018-03-20T00:59:20.052Z,2.77
2018-03-20T01:01:46.098Z,3.17
2018-03-20T01:04:12.081Z,2.37
2018-03-20T01:06:38.044Z,3.10
2018-03-20T01:09:04.840Z,3.07
2018-03-20T01:11:30.858Z,2.87
2018-03-20T01:13:56.909Z,3.50
2018-03-20T01:16:23.603Z,2.73
2018-03-20T01:18:49.573Z,3.17
2018-03-20T01:21:15.535Z,3.97
2018-03-20T01:23:41.512Z,3.13
2018-03-20T01:26:07.477Z,2.97
2018-03-20T01:28:33.470Z,2.73
2018-03-20T01:30:59.530Z,3.43
2018-03-20T01:33:26.235Z,3.57
2018-03-20T01:35:52.744Z,2.80
2018-03-20T01:38:19.482Z,3.10
2018-03-20T01:40:46.206Z,3.70
2018-03-20T01:43:12.163Z,3.73
2018-03-20T01:45:38.155Z,2.90
2018-03-20T01:48:04.159Z,2.97
2018-03-20T01:50:30.200Z,2.60
2018-03-20T01:53:08.641Z,3.50
2018-03-20T01:55:34.636Z,3.80
2018-03-20T01:58:00.649Z,2.90
2018-03-20T02:00:27.445Z,2.70
2018-03-20T02:02:54.173Z,3.20
2018-03-20T02:05:20.144Z,3.93
2018-03-20T02:07:46.144Z,2.23
2018-03-20T02:10:12.155Z,2.87
2018-03-20T02:12:38.121Z,2.87
2018-03-20T02:15:04.201Z,2.37
2018-03-20T02:17:30.342Z,2.83
2018-03-20T02:19:56.326Z,2.53
2018-03-20T02:22:22.336Z,3.40
2018-03-20T02:24:48.315Z,2.43
2018-03-20T02:27:15.030Z,2.93
2018-03-20T02:29:41.051Z,2.47
2018-03-20T02:32:07.020Z,3.10
2018-03-20T02:34:33.028Z,3.53
2018-03-20T02:36:59.159Z,3.17
2018-03-20T02:39:25.137Z,2.93
2018-03-20T02:41:51.109Z,3.53
2018-03-20T02:44:17.137Z,2.50
2018-03-20T02:46:43.118Z,3.40
2018-03-20T02:49:09.091Z,3.30
2018-03-20T02:51:35.828Z,2.27
2018-03-20T02:54:01.824Z,3.17
2018-03-20T02:56:27.860Z,2.87
2018-03-20T02:58:53.937Z,3.10
2018-03-20T03:01:19.938Z,3.77
2018-03-20T03:03:45.910Z,4.03
2018-03-20T03:06:12.097Z,4.00
2018-03-20T03:08:38.060Z,5.37
2018-03-20T03:11:04.058Z,4.83
2018-03-20T03:13:30.106Z,5.00
2018-03-20T03:15:56.080Z,4.50
2018-03-20T03:18:22.051Z,4.50
2018-03-20T03:20:48.806Z,4.00
2018-03-20T03:23:15.518Z,4.27
2018-03-20T03:25:41.477Z,3.90
2018-03-20T03:28:07.556Z,3.43
2018-03-20T03:30:33.560Z,3.07
2018-03-20T03:33:00.301Z,3.77
2018-03-20T03:35:26.328Z,3.67
2018-03-20T03:37:52.323Z,4.20
2018-03-20T03:40:18.300Z,3.37
2018-03-20T03:42:44.292Z,4.10
2018-03-20T03:45:10.276Z,3.47
2018-03-20T03:47:36.235Z,3.87
2018-03-20T03:50:03.171Z,3.17
2018-03-20T03:52:29.198Z,2.77
2018-03-20T03:54:55.158Z,3.27
2018-03-20T03:57:21.890Z,4.40
2018-03-20T03:59:47.865Z,3.50
2018-03-20T04:02:13.824Z,2.97
2018-03-20T04:04:39.832Z,3.37
2018-03-20T04:07:05.885Z,4.10
2018-03-20T04:09:31.982Z,2.97
2018-03-20T04:11:58.049Z,3.80
2018-03-20T04:14:24.005Z,3.00
2018-03-20T04:16:49.988Z,3.00
2018-03-20T04:19:16.324Z,3.30
2018-03-20T04:21:42.292Z,4.17
2018-03-20T04:24:08.278Z,3.60
2018-03-20T04:26:34.340Z,3.40
2018-03-20T04:29:00.324Z,3.27
2018-03-20T04:31:26.334Z,3.27
2018-03-20T04:33:52.741Z,3.60
2018-03-20T04:36:18.717Z,3.30
2018-03-20T04:38:44.711Z,2.63
2018-03-20T04:41:11.645Z,3.23
2018-03-20T04:43:37.634Z,3.30
2018-03-20T04:46:04.393Z,3.50
2018-03-20T04:48:30.529Z,4.20
2018-03-20T04:50:57.321Z,3.40
2018-03-20T04:53:23.287Z,3.87
2018-03-20T04:55:49.274Z,3.30
2018-03-20T04:58:15.261Z,3.93
2018-03-20T05:00:41.237Z,4.33
2018-03-20T05:03:07.230Z,3.03
2018-03-20T05:05:33.268Z,3.60
2018-03-20T05:07:59.312Z,3.03
2018-03-20T05:10:25.290Z,3.70
2018-03-20T05:12:51.257Z,4.60
2018-03-20T05:15:17.244Z,4.20
2018-03-20T05:17:43.257Z,4.27
2018-03-20T05:20:15.369Z,3.30
2018-03-20T05:22:47.515Z,4.07
2018-03-20T05:25:14.238Z,3.20
2018-03-20T05:27:40.228Z,3.30
2018-03-20T05:30:07.083Z,3.77
2018-03-20T05:32:33.854Z,4.67
2018-03-20T05:34:59.872Z,3.20
2018-03-20T05:37:26.226Z,4.10
2018-03-20T05:39:52.213Z,4.03
2018-03-20T05:42:18.209Z,4.20
2018-03-20T05:44:44.214Z,3.20
2018-03-20T05:50:18.077Z,3.93
2018-03-20T05:52:44.820Z,3.33
2018-03-20T05:55:11.541Z,3.67
2018-03-20T05:57:37.593Z,3.77
2018-03-20T06:00:03.620Z,3.23
2018-03-20T06:02:29.676Z,3.30
2018-03-20T06:04:56.447Z,3.87
2018-03-20T06:07:22.445Z,3.57
2018-03-20T06:09:48.395Z,4.13
2018-03-20T06:12:14.365Z,3.00
2018-03-20T06:14:40.325Z,3.47
2018-03-20T06:17:06.316Z,3.50
2018-03-20T06:19:33.105Z,3.43
2018-03-20T06:21:59.120Z,3.47
2018-03-20T06:24:25.838Z,3.57
2018-03-20T06:26:51.830Z,3.00
2018-03-20T06:29:17.811Z,3.40
2018-03-20T06:31:43.769Z,3.40
2018-03-20T06:34:10.490Z,3.73
2018-03-20T06:36:36.456Z,3.20
2018-03-20T06:39:03.226Z,3.50
2018-03-20T06:41:29.281Z,3.03
2018-03-20T06:43:55.249Z,3.17
2018-03-20T06:46:21.213Z,3.50
2018-03-20T06:48:47.957Z,3.57
2018-03-20T06:51:14.672Z,2.97
2018-03-20T06:53:40.628Z,3.47
2018-03-20T06:56:06.635Z,3.53
2018-03-20T06:58:32.625Z,2.70
2018-03-20T07:00:59.359Z,3.10
2018-03-20T07:03:25.341Z,2.90
2018-03-20T07:05:51.309Z,3.40
2018-03-20T07:08:17.295Z,2.97
2018-03-20T07:10:44.030Z,2.73
2018-03-20T07:13:10.739Z,2.90
2018-03-20T07:15:36.709Z,3.23
2018-03-20T07:18:02.775Z,2.63
2018-03-20T07:20:29.537Z,3.00
2018-03-20T07:22:55.508Z,3.30
2018-03-20T07:25:21.670Z,3.03
2018-03-20T07:27:47.658Z,3.77
2018-03-20T07:30:13.624Z,2.97
2018-03-20T07:32:39.669Z,3.77
2018-03-20T07:35:05.652Z,4.07
2018-03-20T07:37:31.663Z,3.47
2018-03-20T07:39:58.452Z,3.57
2018-03-20T07:42:25.145Z,3.37
2018-03-20T07:44:51.114Z,3.93
2018-03-20T07:47:18.245Z,4.20
2018-03-20T07:49:44.216Z,3.67
2018-03-20T07:52:10.177Z,3.23
2018-03-20T07:54:36.278Z,3.20
2018-03-20T07:57:02.356Z,3.10
2018-03-20T07:59:28.383Z,2.70
2018-03-20T08:01:54.401Z,3.23
2018-03-20T08:04:20.374Z,3.20
2018-03-20T08:06:46.351Z,3.97
2018-03-20T08:09:12.321Z,3.37
2018-03-20T08:11:38.281Z,3.63
2018-03-20T08:14:04.250Z,3.23
2018-03-20T08:16:30.328Z,3.37
2018-03-20T08:18:56.304Z,3.07
2018-03-20T08:21:22.268Z,3.60
2018-03-20T08:23:48.253Z,2.90
2018-03-20T08:26:14.217Z,2.60
2018-03-20T08:28:40.205Z,3.30
2018-03-20T08:31:06.200Z,2.90
2018-03-20T08:33:33.654Z,3.30
2018-03-20T08:35:59.659Z,3.70
2018-03-20T08:38:25.654Z,3.63
2018-03-20T08:40:52.372Z,4.00
2018-03-20T08:43:18.324Z,3.80
2018-03-20T08:45:44.349Z,3.77
2018-03-20T08:48:10.309Z,4.00
2018-03-20T08:50:36.285Z,4.00
2018-03-20T08:53:02.323Z,3.60
2018-03-20T08:55:28.312Z,3.77
2018-03-20T08:57:55.049Z,4.37
2018-03-20T09:00:21.022Z,3.23
2018-03-20T09:02:47.766Z,3.50
2018-03-20T09:05:14.477Z,3.20
2018-03-20T09:07:40.537Z,4.70
2018-03-20T09:10:06.522Z,3.80
2018-03-20T09:12:32.550Z,3.80
2018-03-20T09:14:58.554Z,3.60
2018-03-20T09:17:25.258Z,4.70
2018-03-20T09:19:51.230Z,4.40
2018-03-20T09:22:17.225Z,4.30
2018-03-20T09:24:43.189Z,5.17
2018-03-20T09:27:09.148Z,4.70
2018-03-20T09:29:35.907Z,4.13
2018-03-20T09:32:02.662Z,5.03
2018-03-20T09:34:29.401Z,4.90
2018-03-20T09:36:56.150Z,6.30
2018-03-20T09:39:22.117Z,4.93
2018-03-20T09:41:48.107Z,4.70
2018-03-20T09:44:14.096Z,4.33
2018-03-20T09:46:40.062Z,4.27
2018-03-20T09:49:06.084Z,4.13
2018-03-20T09:51:32.060Z,4.60
2018-03-20T09:53:58.817Z,5.10
2018-03-20T09:56:24.799Z,4.77
2018-03-20T09:58:50.827Z,4.93
2018-03-20T10:01:16.777Z,4.93
2018-03-20T10:03:42.753Z,5.23
2018-03-20T10:06:08.820Z,5.67
2018-03-20T10:08:34.797Z,5.10
2018-03-20T10:11:00.857Z,5.73
2018-03-20T10:13:27.665Z,7.23
2018-03-20T10:15:53.630Z,6.67
2018-03-20T10:18:19.593Z,5.67
2018-03-20T10:20:45.700Z,7.17
2018-03-20T10:23:11.662Z,6.37
2018-03-20T10:25:37.670Z,6.93
2018-03-20T10:28:03.693Z,6.83
2018-03-20T10:30:29.712Z,7.63
2018-03-20T10:32:55.681Z,6.83
2018-03-20T10:35:21.765Z,7.20
2018-03-20T10:37:47.682Z,7.23
2018-03-20T10:40:13.860Z,8.27
2018-03-20T10:42:39.836Z,8.37
2018-03-20T10:45:05.812Z,7.33
2018-03-20T10:47:32.611Z,7.00
2018-03-20T10:49:59.298Z,8.13
2018-03-20T10:52:25.247Z,8.13
2018-03-20T10:54:51.958Z,7.77
2018-03-20T10:57:17.933Z,8.10
2018-03-20T10:59:43.896Z,9.13
2018-03-20T11:02:16.120Z,8.93
2018-03-20T11:04:42.145Z,8.23
2018-03-20T11:07:08.112Z,9.20
2018-03-20T11:09:34.109Z,9.57
2018-03-20T11:12:00.160Z,10.07
2018-03-20T11:14:26.122Z,8.20
2018-03-20T11:16:52.147Z,8.90
2018-03-20T11:19:18.122Z,10.43
2018-03-20T11:21:44.273Z,9.63
2018-03-20T11:24:10.245Z,9.50
2018-03-20T11:26:36.261Z,9.43
2018-03-20T11:29:02.285Z,9.10
2018-03-20T11:31:28.284Z,8.57
2018-03-20T11:33:55.009Z,9.20
2018-03-20T11:36:20.968Z,8.30
2018-03-20T11:38:46.940Z,8.10
2018-03-20T11:41:12.965Z,9.03
2018-03-20T11:43:38.942Z,9.37
2018-03-20T11:46:04.949Z,8.93
2018-03-20T11:48:31.009Z,8.10
2018-03-20T11:50:57.019Z,9.50
2018-03-20T11:53:23.013Z,8.47
2018-03-20T11:55:48.996Z,8.57
2018-03-20T11:58:14.961Z,9.17
2018-03-20T12:00:40.941Z,8.63
2018-03-20T12:03:07.659Z,8.83
2018-03-20T12:05:33.626Z,7.57
2018-03-20T12:08:12.949Z,9.23
2018-03-20T12:10:38.910Z,9.47
2018-03-20T12:13:05.677Z,8.67
2018-03-20T12:15:31.660Z,7.90
2018-03-20T12:17:57.694Z,7.40
2018-03-20T12:20:23.652Z,7.37
2018-03-20T12:22:49.681Z,8.73
2018-03-20T12:25:15.693Z,8.70
2018-03-20T12:27:41.645Z,8.17
2018-03-20T12:30:07.617Z,8.43
2018-03-20T12:32:34.348Z,6.77
2018-03-20T12:35:01.167Z,8.90
2018-03-20T12:37:27.228Z,8.70
2018-03-20T12:39:53.189Z,8.47
2018-03-20T12:42:19.912Z,9.70
2018-03-20T12:44:46.174Z,8.77
2018-03-20T12:47:12.909Z,8.97
2018-03-20T12:49:42.438Z,9.20
2018-03-20T12:52:08.648Z,9.90
2018-03-20T12:54:34.699Z,8.43
2018-03-20T12:57:01.489Z,9.23
2018-03-20T12:59:27.872Z,9.63
2018-03-20T13:01:53.891Z,9.10
2018-03-20T13:04:19.919Z,9.33
2018-03-20T13:06:46.096Z,8.87
2018-03-20T13:09:12.864Z,8.90
2018-03-20T13:11:38.949Z,8.90
2018-03-20T13:14:04.977Z,9.30
2018-03-20T13:16:30.961Z,8.90
2018-03-20T13:18:56.931Z,8.57
2018-03-20T13:21:22.904Z,5.77
2018-03-20T13:23:49.089Z,8.97
2018-03-20T13:26:15.825Z,7.20
2018-03-20T13:28:42.569Z,8.67
2018-03-20T13:31:10.047Z,8.37
2018-03-20T13:33:36.022Z,6.83
2018-03-20T13:36:02.041Z,8.23
2018-03-20T13:38:28.005Z,7.97
2018-03-20T13:40:53.972Z,8.73
2018-03-20T13:43:20.224Z,8.00
2018-03-20T13:45:46.190Z,7.87
2018-03-20T13:48:12.244Z,6.97
2018-03-20T13:50:38.200Z,7.17
2018-03-20T13:53:04.207Z,6.63
2018-03-20T13:55:30.180Z,7.33
2018-03-20T13:57:56.189Z,6.33
2018-03-20T14:00:22.153Z,4.83
2018-03-20T14:02:48.121Z,4.67
2018-03-20T14:05:15.062Z,5.30
2018-03-20T14:07:41.029Z,4.50
2018-03-20T14:10:07.756Z,5.70
2018-03-20T14:12:33.792Z,5.00
2018-03-20T14:14:59.765Z,4.33
2018-03-20T14:17:25.738Z,3.73
2018-03-20T14:19:52.315Z,3.70
2018-03-20T14:22:19.773Z,4.13
2018-03-20T14:24:45.781Z,4.10
2018-03-20T14:27:11.770Z,3.93
2018-03-20T14:29:38.534Z,3.60
2018-03-20T14:32:05.321Z,3.60
2018-03-20T14:34:31.498Z,3.73
2018-03-20T14:36:57.462Z,3.73
2018-03-20T14:39:24.174Z,3.90
2018-03-20T14:41:50.168Z,3.53
2018-03-20T14:44:16.152Z,3.73
2018-03-20T14:46:42.129Z,3.17
2018-03-20T14:49:09.163Z,3.67
2018-03-20T14:51:35.151Z,3.37
2018-03-20T14:54:01.122Z,3.40
2018-03-20T14:56:27.399Z,3.27
2018-03-20T14:58:53.378Z,3.67
2018-03-20T15:01:19.336Z,3.57
2018-03-20T15:03:45.360Z,2.77
2018-03-20T15:06:11.408Z,4.80
2018-03-20T15:08:37.487Z,3.10
2018-03-20T15:11:03.593Z,3.03
2018-03-20T15:13:31.071Z,3.17
2018-03-20T15:15:57.053Z,3.63
2018-03-20T15:18:23.060Z,3.03
2018-03-20T15:20:49.071Z,2.70
2018-03-20T15:23:15.050Z,3.03
2018-03-20T15:25:41.072Z,2.50
2018-03-20T15:28:07.844Z,2.77
2018-03-20T15:30:33.844Z,2.70
2018-03-20T15:32:59.849Z,2.60
2018-03-20T15:35:25.944Z,2.47
2018-03-20T15:37:51.931Z,2.57
2018-03-20T15:40:18.712Z,3.10
2018-03-20T15:42:44.786Z,3.27
2018-03-20T15:45:10.837Z,2.87
2018-03-20T15:47:38.219Z,2.80
2018-03-20T15:50:04.311Z,2.23
2018-03-20T15:52:30.322Z,2.20
2018-03-20T15:54:56.383Z,2.33
2018-03-20T15:57:23.166Z,2.80
2018-03-20T15:59:49.200Z,2.63
2018-03-20T16:02:15.598Z,2.60
2018-03-20T16:04:41.671Z,2.40
2018-03-20T16:07:07.770Z,2.40
2018-03-20T16:09:33.920Z,2.43
2018-03-20T16:12:00.649Z,2.27
2018-03-20T16:14:26.613Z,1.80
2018-03-20T16:16:52.628Z,1.93
2018-03-20T16:19:18.666Z,2.00
2018-03-20T16:21:44.718Z,1.40
2018-03-20T16:24:10.959Z,1.53
2018-03-20T16:26:37.733Z,1.33
2018-03-20T16:29:03.728Z,1.03
2018-03-20T16:31:29.777Z,1.80
2018-03-20T16:33:56.502Z,1.07
2018-03-20T16:36:22.505Z,1.43
2018-03-20T16:38:48.564Z,0.93
2018-03-20T16:41:14.597Z,0.80
2018-03-20T16:43:40.599Z,1.23
2018-03-20T16:46:07.416Z,1.20
2018-03-20T16:48:33.390Z,1.20
2018-03-20T16:50:59.369Z,1.10
2018-03-20T16:53:25.438Z,1.10
2018-03-20T16:55:51.392Z,0.70
2018-03-20T16:58:18.097Z,1.07
2018-03-20T17:00:44.086Z,0.43
2018-03-20T17:03:10.150Z,0.70
2018-03-20T17:05:36.174Z,0.80
2018-03-20T17:08:02.188Z,0.97
2018-03-20T17:10:28.929Z,0.80
2018-03-20T17:12:54.894Z,1.10
2018-03-20T17:15:20.938Z,0.70
2018-03-20T17:17:46.926Z,0.60
2018-03-20T17:20:12.899Z,1.33
2018-03-20T17:22:39.808Z,0.80
2018-03-20T17:25:05.789Z,0.87
2018-03-20T17:27:32.499Z,1.00
2018-03-20T17:29:58.537Z,0.90
2018-03-20T17:32:24.497Z,0.73
2018-03-20T17:34:50.479Z,1.10
2018-03-20T17:37:16.482Z,0.80
2018-03-20T17:39:43.214Z,1.00
2018-03-20T17:42:09.208Z,0.77
2018-03-20T17:44:35.490Z,0.70
2018-03-20T17:47:01.475Z,1.20
2018-03-20T17:49:27.465Z,1.20
2018-03-20T17:51:53.481Z,0.63
2018-03-20T17:54:19.451Z,1.23
2018-03-20T17:56:46.169Z,1.20
2018-03-20T17:59:12.150Z,1.17
2018-03-20T18:01:38.289Z,0.90
2018-03-20T18:04:04.298Z,1.30
2018-03-20T18:06:30.337Z,0.80
2018-03-20T18:08:56.292Z,1.00
2018-03-20T18:11:22.283Z,1.00
2018-03-20T18:13:48.315Z,0.70
2018-03-20T18:16:14.273Z,0.80
2018-03-20T18:18:40.253Z,0.87
2018-03-20T18:21:06.257Z,0.70
2018-03-20T18:23:33.012Z,1.30
2018-03-20T18:25:59.729Z,0.87
2018-03-20T18:28:25.732Z,0.90
2018-03-20T18:30:51.724Z,0.80
2018-03-20T18:33:17.735Z,0.93
2018-03-20T18:35:43.734Z,0.87
2018-03-20T18:38:09.709Z,1.13
2018-03-20T18:40:35.694Z,1.00
2018-03-20T18:43:01.910Z,0.93
2018-03-20T18:45:27.877Z,1.00
2018-03-20T18:47:53.840Z,1.67
2018-03-20T18:50:19.837Z,1.57
2018-03-20T18:52:45.882Z,1.40
2018-03-20T18:55:12.029Z,1.70
2018-03-20T18:57:38.083Z,1.63
2018-03-20T19:00:04.200Z,2.10
2018-03-20T19:02:30.249Z,4.40
2018-03-20T19:04:56.222Z,2.17
2018-03-20T19:07:22.176Z,2.00
2018-03-20T19:09:48.150Z,2.67
2018-03-20T19:12:14.208Z,1.87
2018-03-20T19:14:40.991Z,2.27
2018-03-20T19:17:07.702Z,2.10
2018-03-20T19:19:33.740Z,1.80
2018-03-20T19:21:59.699Z,1.83
2018-03-20T19:24:26.402Z,2.80
2018-03-20T19:26:52.368Z,2.97
2018-03-20T19:29:18.321Z,3.23
2018-03-20T19:31:45.035Z,2.30
2018-03-20T19:34:11.051Z,2.33
2018-03-20T19:36:37.104Z,2.83
2018-03-20T19:39:03.949Z,1.80
2018-03-20T19:41:29.949Z,1.40
2018-03-20T19:43:55.916Z,1.13
2018-03-20T19:46:21.881Z,1.47
2018-03-20T19:48:47.912Z,1.50
2018-03-20T19:51:13.875Z,1.40
2018-03-20T19:53:40.618Z,1.80
2018-03-20T19:56:06.693Z,1.63
2018-03-20T19:58:32.676Z,2.23
2018-03-20T20:00:58.633Z,1.50
2018-03-20T20:03:25.366Z,1.47
2018-03-20T20:05:58.472Z,1.37
2018-03-20T20:08:24.465Z,2.10
2018-03-20T20:10:50.437Z,1.60
2018-03-20T20:13:16.410Z,1.43
2018-03-20T20:15:42.469Z,1.00
2018-03-20T20:18:08.468Z,1.10
2018-03-20T20:20:35.235Z,1.27
2018-03-20T20:23:01.632Z,1.20
2018-03-20T20:25:27.602Z,1.00
2018-03-20T20:27:54.314Z,1.20
2018-03-20T20:30:20.361Z,0.80
2018-03-20T20:32:46.366Z,0.80
2018-03-20T20:35:12.385Z,1.03
2018-03-20T20:37:38.433Z,1.33
2018-03-20T20:40:04.549Z,0.90
2018-03-20T20:42:30.535Z,1.10
2018-03-20T20:44:56.536Z,1.00
2018-03-20T20:47:22.500Z,1.00
2018-03-20T20:49:48.460Z,1.07
2018-03-20T20:52:16.008Z,1.27
2018-03-20T20:54:42.021Z,1.20
2018-03-20T20:57:08.037Z,0.93
2018-03-20T20:59:34.213Z,1.27
2018-03-20T21:02:00.178Z,1.00
2018-03-20T21:04:26.141Z,0.80
2018-03-20T21:06:53.073Z,1.30
2018-03-20T21:09:19.051Z,1.27
2018-03-20T21:11:45.021Z,1.37
2018-03-20T21:14:11.045Z,1.33
2018-03-20T21:16:37.081Z,1.40
2018-03-20T21:19:03.049Z,0.90
2018-03-20T21:21:29.062Z,1.00
2018-03-20T21:23:55.012Z,1.03
2018-03-20T21:26:20.987Z,1.77
2018-03-20T21:28:47.004Z,1.60
2018-03-20T21:31:20.786Z,1.90
2018-03-20T21:33:46.753Z,1.80
2018-03-20T21:36:14.213Z,1.80
2018-03-20T21:38:40.254Z,2.03
2018-03-20T21:41:07.044Z,1.67
2018-03-20T21:43:33.010Z,1.93
2018-03-20T21:45:58.981Z,1.93
2018-03-20T21:48:25.117Z,1.93
2018-03-20T21:50:51.169Z,2.30
2018-03-20T21:53:17.869Z,2.50
2018-03-20T21:55:44.253Z,3.03
2018-03-20T21:58:10.322Z,3.10
2018-03-20T22:00:36.387Z,2.47
2018-03-20T22:03:02.433Z,2.10
2018-03-20T22:05:28.401Z,1.80
2018-03-20T22:07:54.365Z,2.40
2018-03-20T22:10:20.661Z,3.07
2018-03-20T22:12:46.741Z,3.47
2018-03-20T22:15:13.454Z,5.17
2018-03-20T22:17:39.510Z,3.47
2018-03-20T22:20:05.512Z,1.93
2018-03-20T22:22:31.491Z,2.77
2018-03-20T22:24:58.263Z,1.20
2018-03-20T22:27:25.256Z,1.10
2018-03-20T22:29:51.220Z,1.03
2018-03-20T22:32:17.209Z,0.80
2018-03-20T22:34:43.174Z,0.83
2018-03-20T22:37:09.194Z,0.80
2018-03-20T22:39:35.263Z,0.90
2018-03-20T22:42:01.254Z,0.90
2018-03-20T22:44:27.221Z,1.17
2018-03-20T22:46:53.232Z,1.00
2018-03-20T22:49:19.184Z,1.07
2018-03-20T22:51:45.145Z,0.60
2018-03-20T22:54:11.196Z,1.07
2018-03-20T22:56:37.967Z,1.17
2018-03-20T22:59:03.966Z,0.90
2018-03-20T23:01:30.009Z,1.23
2018-03-20T23:03:55.992Z,1.00
2018-03-20T23:06:21.950Z,1.20
2018-03-20T23:08:47.928Z,0.73
2018-03-20T23:11:14.630Z,1.13
2018-03-20T23:13:40.874Z,1.00
2018-03-20T23:16:06.905Z,1.00
2018-03-20T23:18:32.882Z,0.87
2018-03-20T23:20:58.848Z,1.60
2018-03-20T23:23:24.844Z,0.67
2018-03-20T23:25:50.813Z,0.83
2018-03-20T23:28:17.525Z,0.60
2018-03-20T23:30:43.541Z,1.30
2018-03-20T23:33:09.582Z,0.90
2018-03-20T23:35:35.610Z,0.80
2018-03-20T23:38:08.476Z,1.07
2018-03-20T23:40:35.200Z,0.90
2018-03-20T23:43:01.914Z,0.90
2018-03-20T23:45:27.902Z,0.90
2018-03-20T23:47:54.603Z,1.07
2018-03-20T23:50:20.581Z,0.97
2018-03-20T23:52:47.349Z,0.97
2018-03-20T23:55:14.066Z,1.03
2018-03-20T23:57:40.079Z,0.67
